sensor_id;sensor_type;location;lat;lon;timestamp;P1;durP1;ratioP1;P2;durP2;ratioP2
3561;SDS011;1795;52.074;4.754;2022-11-13T00:01:15;16.58;;;12.30;;
3561;SDS011;1795;52.074;4.754;2022-11-13T00:03:45;16.00;;;12.18;;
3561;SDS011;1795;52.074;4.754;2022-11-13T00:06:13;14.18;;;11.98;;
3561;SDS011;1795;52.074;4.754;2022-11-13T00:08:42;17.30;;;12.30;;
3561;SDS011;1795;52.074;4.754;2022-11-13T00:11:12;17.30;;;12.32;;
3561;SDS011;1795;52.074;4.754;2022-11-13T00:13:43;14.60;;;11.60;;
3561;SDS011;1795;52.074;4.754;2022-11-13T00:16:12;14.50;;;11.40;;
3561;SDS011;1795;52.074;4.754;2022-11-13T00:18:40;16.17;;;12.20;;
3561;SDS011;1795;52.074;4.754;2022-11-13T00:21:12;15.63;;;12.10;;
3561;SDS011;1795;52.074;4.754;2022-11-13T00:23:40;13.77;;;10.73;;
3561;SDS011;1795;52.074;4.754;2022-11-13T00:26:09;14.48;;;11.88;;
3561;SDS011;1795;52.074;4.754;2022-11-13T00:28:38;13.05;;;10.20;;
3561;SDS011;1795;52.074;4.754;2022-11-13T00:31:06;14.85;;;11.50;;
3561;SDS011;1795;52.074;4.754;2022-11-13T00:33:35;16.73;;;12.30;;
3561;SDS011;1795;52.074;4.754;2022-11-13T00:36:25;15.23;;;11.17;;
3561;SDS011;1795;52.074;4.754;2022-11-13T00:38:54;13.68;;;11.30;;
3561;SDS011;1795;52.074;4.754;2022-11-13T00:41:22;15.02;;;11.40;;
3561;SDS011;1795;52.074;4.754;2022-11-13T00:43:50;14.77;;;10.87;;
3561;SDS011;1795;52.074;4.754;2022-11-13T00:46:19;14.65;;;11.20;;
3561;SDS011;1795;52.074;4.754;2022-11-13T00:48:47;15.35;;;11.20;;
3561;SDS011;1795;52.074;4.754;2022-11-13T00:51:15;13.77;;;11.20;;
3561;SDS011;1795;52.074;4.754;2022-11-13T00:53:46;12.68;;;10.38;;
3561;SDS011;1795;52.074;4.754;2022-11-13T00:56:14;12.73;;;10.63;;
3561;SDS011;1795;52.074;4.754;2022-11-13T00:58:42;14.15;;;10.20;;
3561;SDS011;1795;52.074;4.754;2022-11-13T01:01:12;12.05;;;9.80;;
3561;SDS011;1795;52.074;4.754;2022-11-13T01:03:41;16.63;;;10.57;;
3561;SDS011;1795;52.074;4.754;2022-11-13T01:06:10;17.45;;;9.77;;
3561;SDS011;1795;52.074;4.754;2022-11-13T01:08:38;13.18;;;9.77;;
3561;SDS011;1795;52.074;4.754;2022-11-13T01:11:09;11.90;;;9.40;;
3561;SDS011;1795;52.074;4.754;2022-11-13T01:13:37;11.90;;;9.03;;
3561;SDS011;1795;52.074;4.754;2022-11-13T01:16:06;11.70;;;9.80;;
3561;SDS011;1795;52.074;4.754;2022-11-13T01:18:34;11.75;;;9.20;;
3561;SDS011;1795;52.074;4.754;2022-11-13T01:21:03;11.75;;;9.10;;
3561;SDS011;1795;52.074;4.754;2022-11-13T01:23:32;9.50;;;8.10;;
3561;SDS011;1795;52.074;4.754;2022-11-13T01:26:04;11.52;;;9.15;;
3561;SDS011;1795;52.074;4.754;2022-11-13T01:28:33;10.85;;;8.88;;
3561;SDS011;1795;52.074;4.754;2022-11-13T01:31:03;11.18;;;8.80;;
3561;SDS011;1795;52.074;4.754;2022-11-13T01:33:31;9.23;;;7.70;;
3561;SDS011;1795;52.074;4.754;2022-11-13T01:36:00;10.90;;;8.40;;
3561;SDS011;1795;52.074;4.754;2022-11-13T01:38:28;11.80;;;8.48;;
3561;SDS011;1795;52.074;4.754;2022-11-13T01:41:02;10.45;;;7.80;;
3561;SDS011;1795;52.074;4.754;2022-11-13T01:43:31;11.55;;;8.35;;
3561;SDS011;1795;52.074;4.754;2022-11-13T01:46:07;10.43;;;8.03;;
3561;SDS011;1795;52.074;4.754;2022-11-13T01:48:36;10.70;;;8.55;;
3561;SDS011;1795;52.074;4.754;2022-11-13T01:51:07;10.57;;;8.15;;
3561;SDS011;1795;52.074;4.754;2022-11-13T01:53:36;8.93;;;7.55;;
3561;SDS011;1795;52.074;4.754;2022-11-13T01:56:05;12.27;;;9.00;;
3561;SDS011;1795;52.074;4.754;2022-11-13T01:58:34;10.65;;;8.07;;
3561;SDS011;1795;52.074;4.754;2022-11-13T02:01:02;10.98;;;8.15;;
3561;SDS011;1795;52.074;4.754;2022-11-13T02:03:32;9.02;;;7.35;;
3561;SDS011;1795;52.074;4.754;2022-11-13T02:06:00;9.97;;;8.30;;
3561;SDS011;1795;52.074;4.754;2022-11-13T02:08:28;10.27;;;7.30;;
3561;SDS011;1795;52.074;4.754;2022-11-13T02:10:57;11.30;;;8.20;;
3561;SDS011;1795;52.074;4.754;2022-11-13T02:13:25;10.05;;;8.10;;
3561;SDS011;1795;52.074;4.754;2022-11-13T02:15:53;8.83;;;7.77;;
3561;SDS011;1795;52.074;4.754;2022-11-13T02:18:21;11.40;;;7.78;;
3561;SDS011;1795;52.074;4.754;2022-11-13T02:20:54;9.85;;;8.13;;
3561;SDS011;1795;52.074;4.754;2022-11-13T02:23:24;8.57;;;7.40;;
3561;SDS011;1795;52.074;4.754;2022-11-13T02:25:56;10.05;;;7.88;;
3561;SDS011;1795;52.074;4.754;2022-11-13T02:28:25;9.43;;;7.97;;
3561;SDS011;1795;52.074;4.754;2022-11-13T02:30:54;11.75;;;7.72;;
3561;SDS011;1795;52.074;4.754;2022-11-13T02:33:23;9.45;;;7.60;;
3561;SDS011;1795;52.074;4.754;2022-11-13T02:35:51;9.50;;;7.90;;
3561;SDS011;1795;52.074;4.754;2022-11-13T02:38:20;10.10;;;8.07;;
3561;SDS011;1795;52.074;4.754;2022-11-13T02:40:48;9.98;;;8.20;;
3561;SDS011;1795;52.074;4.754;2022-11-13T02:43:17;9.27;;;7.32;;
3561;SDS011;1795;52.074;4.754;2022-11-13T02:45:46;10.13;;;7.87;;
3561;SDS011;1795;52.074;4.754;2022-11-13T02:48:14;10.73;;;7.70;;
3561;SDS011;1795;52.074;4.754;2022-11-13T02:50:42;10.35;;;7.88;;
3561;SDS011;1795;52.074;4.754;2022-11-13T02:53:10;11.07;;;8.27;;
3561;SDS011;1795;52.074;4.754;2022-11-13T02:55:39;10.60;;;7.77;;
3561;SDS011;1795;52.074;4.754;2022-11-13T02:58:07;10.77;;;7.90;;
3561;SDS011;1795;52.074;4.754;2022-11-13T03:00:36;12.50;;;7.82;;
3561;SDS011;1795;52.074;4.754;2022-11-13T03:03:05;9.30;;;7.60;;
3561;SDS011;1795;52.074;4.754;2022-11-13T03:05:33;12.52;;;8.70;;
3561;SDS011;1795;52.074;4.754;2022-11-13T03:08:01;12.77;;;8.57;;
3561;SDS011;1795;52.074;4.754;2022-11-13T03:10:30;11.82;;;8.40;;
3561;SDS011;1795;52.074;4.754;2022-11-13T03:12:58;11.68;;;7.53;;
3561;SDS011;1795;52.074;4.754;2022-11-13T03:15:26;10.20;;;8.00;;
3561;SDS011;1795;52.074;4.754;2022-11-13T03:17:56;9.75;;;7.90;;
3561;SDS011;1795;52.074;4.754;2022-11-13T03:20:24;13.05;;;8.77;;
3561;SDS011;1795;52.074;4.754;2022-11-13T03:22:52;10.47;;;7.70;;
3561;SDS011;1795;52.074;4.754;2022-11-13T03:25:20;9.70;;;7.40;;
3561;SDS011;1795;52.074;4.754;2022-11-13T03:27:48;11.15;;;8.13;;
3561;SDS011;1795;52.074;4.754;2022-11-13T03:30:17;14.52;;;8.43;;
3561;SDS011;1795;52.074;4.754;2022-11-13T03:32:45;8.95;;;7.60;;
3561;SDS011;1795;52.074;4.754;2022-11-13T03:35:15;12.48;;;7.82;;
3561;SDS011;1795;52.074;4.754;2022-11-13T03:37:43;9.03;;;7.27;;
3561;SDS011;1795;52.074;4.754;2022-11-13T03:40:11;11.02;;;7.40;;
3561;SDS011;1795;52.074;4.754;2022-11-13T03:42:40;10.20;;;7.57;;
3561;SDS011;1795;52.074;4.754;2022-11-13T03:45:08;9.85;;;7.20;;
3561;SDS011;1795;52.074;4.754;2022-11-13T03:47:36;10.23;;;7.30;;
3561;SDS011;1795;52.074;4.754;2022-11-13T03:50:05;10.07;;;7.07;;
3561;SDS011;1795;52.074;4.754;2022-11-13T03:52:34;11.02;;;8.18;;
3561;SDS011;1795;52.074;4.754;2022-11-13T03:55:03;9.40;;;7.50;;
3561;SDS011;1795;52.074;4.754;2022-11-13T03:57:31;9.27;;;7.47;;
3561;SDS011;1795;52.074;4.754;2022-11-13T03:59:59;10.48;;;7.60;;
3561;SDS011;1795;52.074;4.754;2022-11-13T04:02:27;10.07;;;7.80;;
3561;SDS011;1795;52.074;4.754;2022-11-13T04:04:56;9.88;;;7.90;;
3561;SDS011;1795;52.074;4.754;2022-11-13T04:07:24;9.23;;;6.80;;
3561;SDS011;1795;52.074;4.754;2022-11-13T04:09:54;9.05;;;7.35;;
3561;SDS011;1795;52.074;4.754;2022-11-13T04:12:22;11.00;;;7.43;;
3561;SDS011;1795;52.074;4.754;2022-11-13T04:14:50;9.80;;;7.25;;
3561;SDS011;1795;52.074;4.754;2022-11-13T04:17:18;10.07;;;7.45;;
3561;SDS011;1795;52.074;4.754;2022-11-13T04:19:46;9.38;;;7.97;;
3561;SDS011;1795;52.074;4.754;2022-11-13T04:22:15;10.32;;;7.00;;
3561;SDS011;1795;52.074;4.754;2022-11-13T04:24:43;9.07;;;6.70;;
3561;SDS011;1795;52.074;4.754;2022-11-13T04:27:13;9.77;;;6.95;;
3561;SDS011;1795;52.074;4.754;2022-11-13T04:29:41;8.52;;;7.47;;
3561;SDS011;1795;52.074;4.754;2022-11-13T04:32:09;10.80;;;7.93;;
3561;SDS011;1795;52.074;4.754;2022-11-13T04:34:37;13.80;;;7.45;;
3561;SDS011;1795;52.074;4.754;2022-11-13T04:37:06;9.85;;;7.50;;
3561;SDS011;1795;52.074;4.754;2022-11-13T04:39:34;8.93;;;7.10;;
3561;SDS011;1795;52.074;4.754;2022-11-13T04:42:02;9.63;;;7.20;;
3561;SDS011;1795;52.074;4.754;2022-11-13T04:44:49;10.77;;;7.80;;
3561;SDS011;1795;52.074;4.754;2022-11-13T04:47:18;11.77;;;7.50;;
3561;SDS011;1795;52.074;4.754;2022-11-13T04:49:46;10.10;;;7.70;;
3561;SDS011;1795;52.074;4.754;2022-11-13T04:52:14;10.32;;;7.97;;
3561;SDS011;1795;52.074;4.754;2022-11-13T04:54:42;10.18;;;7.72;;
3561;SDS011;1795;52.074;4.754;2022-11-13T04:57:11;9.25;;;7.20;;
3561;SDS011;1795;52.074;4.754;2022-11-13T04:59:39;9.80;;;7.77;;
3561;SDS011;1795;52.074;4.754;2022-11-13T05:02:08;8.80;;;7.13;;
3561;SDS011;1795;52.074;4.754;2022-11-13T05:04:37;10.85;;;8.18;;
3561;SDS011;1795;52.074;4.754;2022-11-13T05:07:05;11.40;;;7.90;;
3561;SDS011;1795;52.074;4.754;2022-11-13T05:09:33;10.50;;;8.07;;
3561;SDS011;1795;52.074;4.754;2022-11-13T05:12:02;10.38;;;7.65;;
3561;SDS011;1795;52.074;4.754;2022-11-13T05:14:33;9.10;;;7.65;;
3561;SDS011;1795;52.074;4.754;2022-11-13T05:17:02;11.95;;;8.00;;
3561;SDS011;1795;52.074;4.754;2022-11-13T05:19:32;10.17;;;7.80;;
3561;SDS011;1795;52.074;4.754;2022-11-13T05:22:00;12.43;;;8.05;;
3561;SDS011;1795;52.074;4.754;2022-11-13T05:24:29;11.13;;;8.88;;
3561;SDS011;1795;52.074;4.754;2022-11-13T05:26:57;9.80;;;8.10;;
3561;SDS011;1795;52.074;4.754;2022-11-13T05:29:25;8.60;;;7.60;;
3561;SDS011;1795;52.074;4.754;2022-11-13T05:31:54;10.43;;;8.43;;
3561;SDS011;1795;52.074;4.754;2022-11-13T05:34:22;13.32;;;9.00;;
3561;SDS011;1795;52.074;4.754;2022-11-13T05:36:51;9.88;;;7.30;;
3561;SDS011;1795;52.074;4.754;2022-11-13T05:39:20;10.88;;;8.15;;
3561;SDS011;1795;52.074;4.754;2022-11-13T05:41:48;8.77;;;7.78;;
3561;SDS011;1795;52.074;4.754;2022-11-13T05:44:16;10.73;;;8.48;;
3561;SDS011;1795;52.074;4.754;2022-11-13T05:46:44;13.18;;;8.13;;
3561;SDS011;1795;52.074;4.754;2022-11-13T05:49:13;10.43;;;7.45;;
3561;SDS011;1795;52.074;4.754;2022-11-13T05:51:41;11.48;;;8.02;;
3561;SDS011;1795;52.074;4.754;2022-11-13T05:54:10;10.05;;;7.70;;
3561;SDS011;1795;52.074;4.754;2022-11-13T05:56:39;10.20;;;7.85;;
3561;SDS011;1795;52.074;4.754;2022-11-13T05:59:07;10.70;;;8.40;;
3561;SDS011;1795;52.074;4.754;2022-11-13T06:01:36;10.18;;;7.70;;
3561;SDS011;1795;52.074;4.754;2022-11-13T06:04:05;11.03;;;7.50;;
3561;SDS011;1795;52.074;4.754;2022-11-13T06:06:33;10.18;;;8.00;;
3561;SDS011;1795;52.074;4.754;2022-11-13T06:09:03;10.57;;;7.97;;
3561;SDS011;1795;52.074;4.754;2022-11-13T06:11:33;12.00;;;8.45;;
3561;SDS011;1795;52.074;4.754;2022-11-13T06:14:01;9.80;;;7.50;;
3561;SDS011;1795;52.074;4.754;2022-11-13T06:16:33;9.50;;;7.75;;
3561;SDS011;1795;52.074;4.754;2022-11-13T06:19:04;11.75;;;8.10;;
3561;SDS011;1795;52.074;4.754;2022-11-13T06:21:33;11.57;;;8.27;;
3561;SDS011;1795;52.074;4.754;2022-11-13T06:24:01;11.27;;;8.95;;
3561;SDS011;1795;52.074;4.754;2022-11-13T06:26:30;10.30;;;7.80;;
3561;SDS011;1795;52.074;4.754;2022-11-13T06:29:01;12.30;;;6.97;;
3561;SDS011;1795;52.074;4.754;2022-11-13T06:31:30;11.02;;;8.02;;
3561;SDS011;1795;52.074;4.754;2022-11-13T06:33:59;10.70;;;8.27;;
3561;SDS011;1795;52.074;4.754;2022-11-13T06:36:28;9.80;;;7.65;;
3561;SDS011;1795;52.074;4.754;2022-11-13T06:38:56;11.27;;;8.27;;
3561;SDS011;1795;52.074;4.754;2022-11-13T06:41:25;10.52;;;7.75;;
3561;SDS011;1795;52.074;4.754;2022-11-13T06:43:54;11.70;;;8.50;;
3561;SDS011;1795;52.074;4.754;2022-11-13T06:46:29;12.07;;;7.87;;
3561;SDS011;1795;52.074;4.754;2022-11-13T06:48:57;8.65;;;7.32;;
3561;SDS011;1795;52.074;4.754;2022-11-13T06:51:26;10.80;;;7.70;;
3561;SDS011;1795;52.074;4.754;2022-11-13T06:53:54;11.13;;;7.57;;
3561;SDS011;1795;52.074;4.754;2022-11-13T06:56:23;9.32;;;7.40;;
3561;SDS011;1795;52.074;4.754;2022-11-13T06:58:52;10.30;;;7.55;;
3561;SDS011;1795;52.074;4.754;2022-11-13T07:01:21;11.70;;;8.07;;
3561;SDS011;1795;52.074;4.754;2022-11-13T07:03:51;10.45;;;7.30;;
3561;SDS011;1795;52.074;4.754;2022-11-13T07:06:20;9.35;;;7.10;;
3561;SDS011;1795;52.074;4.754;2022-11-13T07:08:48;10.00;;;7.63;;
3561;SDS011;1795;52.074;4.754;2022-11-13T07:11:17;9.05;;;7.60;;
3561;SDS011;1795;52.074;4.754;2022-11-13T07:13:46;8.40;;;7.30;;
3561;SDS011;1795;52.074;4.754;2022-11-13T07:16:15;9.05;;;7.00;;
3561;SDS011;1795;52.074;4.754;2022-11-13T07:18:43;11.68;;;7.80;;
3561;SDS011;1795;52.074;4.754;2022-11-13T07:21:17;9.95;;;7.15;;
3561;SDS011;1795;52.074;4.754;2022-11-13T07:23:46;11.02;;;7.22;;
3561;SDS011;1795;52.074;4.754;2022-11-13T07:26:14;10.13;;;7.40;;
3561;SDS011;1795;52.074;4.754;2022-11-13T07:28:42;8.60;;;6.90;;
3561;SDS011;1795;52.074;4.754;2022-11-13T07:31:11;11.43;;;7.70;;
3561;SDS011;1795;52.074;4.754;2022-11-13T07:33:40;11.18;;;7.40;;
3561;SDS011;1795;52.074;4.754;2022-11-13T07:36:08;9.07;;;7.00;;
3561;SDS011;1795;52.074;4.754;2022-11-13T07:38:38;10.02;;;7.70;;
3561;SDS011;1795;52.074;4.754;2022-11-13T07:41:06;11.07;;;7.45;;
3561;SDS011;1795;52.074;4.754;2022-11-13T07:43:35;8.73;;;7.13;;
3561;SDS011;1795;52.074;4.754;2022-11-13T07:46:03;8.77;;;7.37;;
3561;SDS011;1795;52.074;4.754;2022-11-13T07:48:31;12.75;;;8.55;;
3561;SDS011;1795;52.074;4.754;2022-11-13T07:51:00;9.02;;;7.40;;
3561;SDS011;1795;52.074;4.754;2022-11-13T07:53:28;8.93;;;8.02;;
3561;SDS011;1795;52.074;4.754;2022-11-13T07:56:00;11.20;;;7.90;;
3561;SDS011;1795;52.074;4.754;2022-11-13T07:58:28;12.50;;;8.13;;
3561;SDS011;1795;52.074;4.754;2022-11-13T08:01:00;10.73;;;8.38;;
3561;SDS011;1795;52.074;4.754;2022-11-13T08:03:29;11.52;;;8.45;;
3561;SDS011;1795;52.074;4.754;2022-11-13T08:05:58;11.57;;;7.90;;
3561;SDS011;1795;52.074;4.754;2022-11-13T08:08:27;9.00;;;8.00;;
3561;SDS011;1795;52.074;4.754;2022-11-13T08:10:56;9.35;;;7.43;;
3561;SDS011;1795;52.074;4.754;2022-11-13T08:13:26;9.80;;;7.53;;
3561;SDS011;1795;52.074;4.754;2022-11-13T08:15:57;12.32;;;7.90;;
3561;SDS011;1795;52.074;4.754;2022-11-13T08:18:25;9.95;;;7.50;;
3561;SDS011;1795;52.074;4.754;2022-11-13T08:20:54;10.70;;;7.65;;
3561;SDS011;1795;52.074;4.754;2022-11-13T08:23:22;9.60;;;8.00;;
3561;SDS011;1795;52.074;4.754;2022-11-13T08:25:50;10.07;;;7.40;;
3561;SDS011;1795;52.074;4.754;2022-11-13T08:28:19;9.75;;;7.10;;
3561;SDS011;1795;52.074;4.754;2022-11-13T08:30:48;8.35;;;7.45;;
3561;SDS011;1795;52.074;4.754;2022-11-13T08:33:17;9.93;;;7.60;;
3561;SDS011;1795;52.074;4.754;2022-11-13T08:35:51;10.85;;;8.05;;
3561;SDS011;1795;52.074;4.754;2022-11-13T08:38:19;9.25;;;7.50;;
3561;SDS011;1795;52.074;4.754;2022-11-13T08:40:48;9.00;;;7.67;;
3561;SDS011;1795;52.074;4.754;2022-11-13T08:43:16;10.18;;;7.50;;
3561;SDS011;1795;52.074;4.754;2022-11-13T08:45:44;10.00;;;7.60;;
3561;SDS011;1795;52.074;4.754;2022-11-13T08:48:14;10.55;;;7.45;;
3561;SDS011;1795;52.074;4.754;2022-11-13T08:50:43;11.18;;;7.70;;
3561;SDS011;1795;52.074;4.754;2022-11-13T08:53:11;9.48;;;7.78;;
3561;SDS011;1795;52.074;4.754;2022-11-13T08:55:39;10.98;;;8.00;;
3561;SDS011;1795;52.074;4.754;2022-11-13T08:58:07;11.82;;;8.30;;
3561;SDS011;1795;52.074;4.754;2022-11-13T09:00:36;12.60;;;7.67;;
3561;SDS011;1795;52.074;4.754;2022-11-13T09:03:04;10.20;;;7.90;;
3561;SDS011;1795;52.074;4.754;2022-11-13T09:05:34;11.88;;;8.43;;
3561;SDS011;1795;52.074;4.754;2022-11-13T09:08:02;8.90;;;7.70;;
3561;SDS011;1795;52.074;4.754;2022-11-13T09:10:31;12.30;;;8.30;;
3561;SDS011;1795;52.074;4.754;2022-11-13T09:13:00;10.70;;;8.50;;
3561;SDS011;1795;52.074;4.754;2022-11-13T09:15:29;11.02;;;8.15;;
3561;SDS011;1795;52.074;4.754;2022-11-13T09:17:58;10.07;;;8.25;;
3561;SDS011;1795;52.074;4.754;2022-11-13T09:20:26;14.70;;;8.40;;
3561;SDS011;1795;52.074;4.754;2022-11-13T09:22:57;11.67;;;8.47;;
3561;SDS011;1795;52.074;4.754;2022-11-13T09:25:25;10.57;;;8.18;;
3561;SDS011;1795;52.074;4.754;2022-11-13T09:28:02;11.55;;;7.47;;
3561;SDS011;1795;52.074;4.754;2022-11-13T09:30:30;11.65;;;8.90;;
3561;SDS011;1795;52.074;4.754;2022-11-13T09:32:59;10.60;;;8.50;;
3561;SDS011;1795;52.074;4.754;2022-11-13T09:35:28;10.68;;;8.00;;
3561;SDS011;1795;52.074;4.754;2022-11-13T09:38:04;9.43;;;7.80;;
3561;SDS011;1795;52.074;4.754;2022-11-13T09:40:38;11.60;;;8.80;;
3561;SDS011;1795;52.074;4.754;2022-11-13T09:43:10;11.70;;;9.30;;
3561;SDS011;1795;52.074;4.754;2022-11-13T09:45:40;11.25;;;8.27;;
3561;SDS011;1795;52.074;4.754;2022-11-13T09:48:12;10.95;;;8.80;;
3561;SDS011;1795;52.074;4.754;2022-11-13T09:50:44;11.00;;;8.63;;
3561;SDS011;1795;52.074;4.754;2022-11-13T09:53:14;14.00;;;8.88;;
3561;SDS011;1795;52.074;4.754;2022-11-13T09:55:44;10.77;;;8.70;;
3561;SDS011;1795;52.074;4.754;2022-11-13T09:58:17;11.95;;;8.80;;
3561;SDS011;1795;52.074;4.754;2022-11-13T10:00:46;10.30;;;8.20;;
3561;SDS011;1795;52.074;4.754;2022-11-13T10:03:20;12.10;;;8.30;;
3561;SDS011;1795;52.074;4.754;2022-11-13T10:06:13;11.35;;;8.40;;
3561;SDS011;1795;52.074;4.754;2022-11-13T10:08:48;8.83;;;7.80;;
3561;SDS011;1795;52.074;4.754;2022-11-13T10:11:20;9.07;;;7.90;;
3561;SDS011;1795;52.074;4.754;2022-11-13T10:13:52;8.88;;;7.25;;
3561;SDS011;1795;52.074;4.754;2022-11-13T10:16:25;11.70;;;8.20;;
3561;SDS011;1795;52.074;4.754;2022-11-13T10:18:55;9.32;;;7.32;;
3561;SDS011;1795;52.074;4.754;2022-11-13T10:21:28;10.00;;;7.70;;
3561;SDS011;1795;52.074;4.754;2022-11-13T10:24:00;9.18;;;7.35;;
3561;SDS011;1795;52.074;4.754;2022-11-13T10:26:36;9.63;;;7.60;;
3561;SDS011;1795;52.074;4.754;2022-11-13T10:29:07;10.85;;;8.07;;
3561;SDS011;1795;52.074;4.754;2022-11-13T10:31:41;9.48;;;7.35;;
3561;SDS011;1795;52.074;4.754;2022-11-13T10:34:10;8.50;;;6.97;;
3561;SDS011;1795;52.074;4.754;2022-11-13T10:36:41;9.40;;;7.00;;
3561;SDS011;1795;52.074;4.754;2022-11-13T10:39:12;9.32;;;7.50;;
3561;SDS011;1795;52.074;4.754;2022-11-13T10:41:44;9.57;;;7.30;;
3561;SDS011;1795;52.074;4.754;2022-11-13T10:44:24;7.90;;;7.07;;
3561;SDS011;1795;52.074;4.754;2022-11-13T10:47:02;8.48;;;7.00;;
3561;SDS011;1795;52.074;4.754;2022-11-13T10:49:30;8.70;;;6.70;;
3561;SDS011;1795;52.074;4.754;2022-11-13T10:51:59;10.35;;;7.45;;
3561;SDS011;1795;52.074;4.754;2022-11-13T10:54:37;8.45;;;6.82;;
3561;SDS011;1795;52.074;4.754;2022-11-13T10:59:58;11.23;;;7.22;;
3561;SDS011;1795;52.074;4.754;2022-11-13T11:02:27;9.18;;;7.60;;
3561;SDS011;1795;52.074;4.754;2022-11-13T11:05:03;8.77;;;7.03;;
3561;SDS011;1795;52.074;4.754;2022-11-13T11:07:33;8.70;;;7.18;;
3561;SDS011;1795;52.074;4.754;2022-11-13T11:10:17;8.60;;;7.20;;
3561;SDS011;1795;52.074;4.754;2022-11-13T11:12:50;7.38;;;6.68;;
3561;SDS011;1795;52.074;4.754;2022-11-13T11:15:19;8.98;;;7.45;;
3561;SDS011;1795;52.074;4.754;2022-11-13T11:17:49;8.38;;;7.47;;
3561;SDS011;1795;52.074;4.754;2022-11-13T11:20:20;7.60;;;6.70;;
3561;SDS011;1795;52.074;4.754;2022-11-13T11:22:51;8.88;;;7.18;;
3561;SDS011;1795;52.074;4.754;2022-11-13T11:25:28;9.90;;;7.57;;
3561;SDS011;1795;52.074;4.754;2022-11-13T11:27:59;7.63;;;6.80;;
3561;SDS011;1795;52.074;4.754;2022-11-13T11:30:30;8.80;;;7.20;;
3561;SDS011;1795;52.074;4.754;2022-11-13T11:33:03;7.90;;;6.90;;
3561;SDS011;1795;52.074;4.754;2022-11-13T11:35:37;9.33;;;7.70;;
3561;SDS011;1795;52.074;4.754;2022-11-13T11:38:09;9.90;;;7.30;;
3561;SDS011;1795;52.074;4.754;2022-11-13T11:40:40;8.55;;;7.13;;
3561;SDS011;1795;52.074;4.754;2022-11-13T11:43:11;7.53;;;6.72;;
3561;SDS011;1795;52.074;4.754;2022-11-13T11:45:42;9.40;;;6.40;;
3561;SDS011;1795;52.074;4.754;2022-11-13T11:48:12;7.10;;;6.38;;
3561;SDS011;1795;52.074;4.754;2022-11-13T11:50:43;9.70;;;6.50;;
3561;SDS011;1795;52.074;4.754;2022-11-13T11:53:13;6.90;;;6.15;;
3561;SDS011;1795;52.074;4.754;2022-11-13T11:58:32;7.80;;;6.93;;
3561;SDS011;1795;52.074;4.754;2022-11-13T12:01:03;7.90;;;6.70;;
3561;SDS011;1795;52.074;4.754;2022-11-13T12:03:36;9.55;;;7.00;;
3561;SDS011;1795;52.074;4.754;2022-11-13T12:06:09;7.13;;;6.40;;
3561;SDS011;1795;52.074;4.754;2022-11-13T12:08:40;8.82;;;6.75;;
3561;SDS011;1795;52.074;4.754;2022-11-13T12:11:12;8.27;;;6.78;;
3561;SDS011;1795;52.074;4.754;2022-11-13T12:13:45;8.10;;;6.18;;
3561;SDS011;1795;52.074;4.754;2022-11-13T12:16:18;7.63;;;6.20;;
3561;SDS011;1795;52.074;4.754;2022-11-13T12:18:52;7.40;;;6.43;;
3561;SDS011;1795;52.074;4.754;2022-11-13T12:21:23;7.97;;;6.50;;
3561;SDS011;1795;52.074;4.754;2022-11-13T12:24:04;8.30;;;6.73;;
3561;SDS011;1795;52.074;4.754;2022-11-13T12:26:34;9.47;;;6.87;;
3561;SDS011;1795;52.074;4.754;2022-11-13T12:29:09;7.85;;;6.53;;
3561;SDS011;1795;52.074;4.754;2022-11-13T12:31:43;8.40;;;7.50;;
3561;SDS011;1795;52.074;4.754;2022-11-13T12:34:15;7.25;;;6.55;;
3561;SDS011;1795;52.074;4.754;2022-11-13T12:36:46;9.00;;;7.20;;
3561;SDS011;1795;52.074;4.754;2022-11-13T12:39:29;8.32;;;6.30;;
3561;SDS011;1795;52.074;4.754;2022-11-13T12:42:00;8.55;;;6.85;;
3561;SDS011;1795;52.074;4.754;2022-11-13T12:44:31;9.57;;;7.35;;
3561;SDS011;1795;52.074;4.754;2022-11-13T12:47:06;9.55;;;7.40;;
3561;SDS011;1795;52.074;4.754;2022-11-13T12:49:35;8.35;;;6.85;;
3561;SDS011;1795;52.074;4.754;2022-11-13T12:52:14;8.68;;;6.43;;
3561;SDS011;1795;52.074;4.754;2022-11-13T12:54:43;9.90;;;7.20;;
3561;SDS011;1795;52.074;4.754;2022-11-13T12:57:15;9.93;;;7.22;;
3561;SDS011;1795;52.074;4.754;2022-11-13T12:59:46;9.43;;;7.70;;
3561;SDS011;1795;52.074;4.754;2022-11-13T13:05:01;8.50;;;7.50;;
3561;SDS011;1795;52.074;4.754;2022-11-13T13:07:42;9.43;;;7.83;;
3561;SDS011;1795;52.074;4.754;2022-11-13T13:10:15;8.10;;;6.72;;
3561;SDS011;1795;52.074;4.754;2022-11-13T13:12:47;10.23;;;7.07;;
3561;SDS011;1795;52.074;4.754;2022-11-13T13:15:26;7.53;;;6.53;;
3561;SDS011;1795;52.074;4.754;2022-11-13T13:18:02;8.40;;;6.90;;
3561;SDS011;1795;52.074;4.754;2022-11-13T13:20:32;9.10;;;7.00;;
3561;SDS011;1795;52.074;4.754;2022-11-13T13:23:01;8.88;;;6.93;;
3561;SDS011;1795;52.074;4.754;2022-11-13T13:25:34;9.88;;;7.30;;
3561;SDS011;1795;52.074;4.754;2022-11-13T13:28:03;9.82;;;6.93;;
3561;SDS011;1795;52.074;4.754;2022-11-13T13:30:47;9.35;;;6.68;;
3561;SDS011;1795;52.074;4.754;2022-11-13T13:33:19;8.55;;;6.20;;
3561;SDS011;1795;52.074;4.754;2022-11-13T13:35:50;8.00;;;7.20;;
3561;SDS011;1795;52.074;4.754;2022-11-13T13:38:23;7.97;;;7.18;;
3561;SDS011;1795;52.074;4.754;2022-11-13T13:40:58;8.85;;;6.80;;
3561;SDS011;1795;52.074;4.754;2022-11-13T13:43:33;8.10;;;6.65;;
3561;SDS011;1795;52.074;4.754;2022-11-13T13:46:07;8.67;;;6.30;;
3561;SDS011;1795;52.074;4.754;2022-11-13T13:48:37;8.43;;;6.90;;
3561;SDS011;1795;52.074;4.754;2022-11-13T13:51:10;8.40;;;6.43;;
3561;SDS011;1795;52.074;4.754;2022-11-13T13:53:41;8.70;;;6.70;;
3561;SDS011;1795;52.074;4.754;2022-11-13T13:56:11;7.00;;;6.30;;
3561;SDS011;1795;52.074;4.754;2022-11-13T13:58:40;9.18;;;7.05;;
3561;SDS011;1795;52.074;4.754;2022-11-13T14:01:12;9.20;;;7.10;;
3561;SDS011;1795;52.074;4.754;2022-11-13T14:03:45;9.30;;;7.10;;
3561;SDS011;1795;52.074;4.754;2022-11-13T14:06:17;8.05;;;7.00;;
3561;SDS011;1795;52.074;4.754;2022-11-13T14:08:46;9.23;;;7.38;;
3561;SDS011;1795;52.074;4.754;2022-11-13T14:11:15;10.40;;;7.00;;
3561;SDS011;1795;52.074;4.754;2022-11-13T14:13:43;11.30;;;6.93;;
3561;SDS011;1795;52.074;4.754;2022-11-13T14:16:13;8.30;;;6.77;;
3561;SDS011;1795;52.074;4.754;2022-11-13T14:18:42;8.27;;;7.13;;
3561;SDS011;1795;52.074;4.754;2022-11-13T14:21:11;8.47;;;7.00;;
3561;SDS011;1795;52.074;4.754;2022-11-13T14:23:42;8.30;;;6.22;;
3561;SDS011;1795;52.074;4.754;2022-11-13T14:26:11;8.70;;;7.18;;
3561;SDS011;1795;52.074;4.754;2022-11-13T14:28:43;8.67;;;6.73;;
3561;SDS011;1795;52.074;4.754;2022-11-13T14:31:23;8.55;;;6.95;;
3561;SDS011;1795;52.074;4.754;2022-11-13T14:33:52;8.77;;;7.13;;
3561;SDS011;1795;52.074;4.754;2022-11-13T14:36:24;9.80;;;6.97;;
3561;SDS011;1795;52.074;4.754;2022-11-13T14:38:52;10.07;;;6.72;;
3561;SDS011;1795;52.074;4.754;2022-11-13T14:41:30;8.57;;;6.53;;
3561;SDS011;1795;52.074;4.754;2022-11-13T14:44:00;9.38;;;6.50;;
3561;SDS011;1795;52.074;4.754;2022-11-13T14:46:32;8.68;;;6.85;;
3561;SDS011;1795;52.074;4.754;2022-11-13T14:49:01;8.38;;;6.25;;
3561;SDS011;1795;52.074;4.754;2022-11-13T14:51:29;7.80;;;6.60;;
3561;SDS011;1795;52.074;4.754;2022-11-13T14:53:58;8.27;;;6.80;;
3561;SDS011;1795;52.074;4.754;2022-11-13T14:56:36;7.93;;;6.40;;
3561;SDS011;1795;52.074;4.754;2022-11-13T14:59:08;7.93;;;6.70;;
3561;SDS011;1795;52.074;4.754;2022-11-13T15:01:53;9.33;;;6.90;;
3561;SDS011;1795;52.074;4.754;2022-11-13T15:04:21;7.20;;;6.30;;
3561;SDS011;1795;52.074;4.754;2022-11-13T15:06:50;8.45;;;6.30;;
3561;SDS011;1795;52.074;4.754;2022-11-13T15:09:21;7.70;;;6.32;;
3561;SDS011;1795;52.074;4.754;2022-11-13T15:11:50;6.60;;;5.90;;
3561;SDS011;1795;52.074;4.754;2022-11-13T15:14:19;6.50;;;5.80;;
3561;SDS011;1795;52.074;4.754;2022-11-13T15:16:48;6.80;;;6.10;;
3561;SDS011;1795;52.074;4.754;2022-11-13T15:19:18;8.18;;;5.95;;
3561;SDS011;1795;52.074;4.754;2022-11-13T15:21:47;7.63;;;6.60;;
3561;SDS011;1795;52.074;4.754;2022-11-13T15:24:35;8.00;;;6.65;;
3561;SDS011;1795;52.074;4.754;2022-11-13T15:27:03;6.40;;;5.60;;
3561;SDS011;1795;52.074;4.754;2022-11-13T15:29:32;8.73;;;6.00;;
3561;SDS011;1795;52.074;4.754;2022-11-13T15:32:00;8.10;;;6.00;;
3561;SDS011;1795;52.074;4.754;2022-11-13T15:34:30;5.80;;;5.20;;